Tifton, Georgia
Current Conditions -  °F | °C
As of 7:35 AM on Sunday 21 Dec 2014 (Local Time) from KTMA Reporting Station
Overcast Overcast  
Wind Chill: 11°   Ceiling: 400
Heat Index: 11°   Visibility: 7mi
Dew Point: 11°   Wind: 7mph
Humidity: 99%   Direction: 60°ENE
Pressure: 30.14"   Gusts: NA
Location:  31.45°N, 83.51°W
Report Text: KTMA 211235Z AUTO 06006KT 7SM OVC004 11/11 A3014 RMK AO2 T01100108
Loading
Personal Weather Stations






























Interactive Weather Map New forecast layout! Learn more

10-Day Weather Forecast

Advertisements
Track Severe Weather on mobile